Time;durP1;ratioP1;P1;durP2;ratioP2;P2;SDS_P1;SDS_P2;PMS_P1;PMS_P2;Temp;Humidity;BMP_temperature;BMP_pressure;BME280_temperature;BME280_humidity;BME280_pressure;Samples;Min_cycle;Max_cycle;Signal;HPM_P1;HPM_P2
2022/02/08 09:47:06;;;;;;;3.60;2.03;;;;;;;;;;6149870;23;20075;-87
2022/02/08 09:49:33;;;;;;;3.75;1.83;;;;;;;;;;6184701;23;20020;-86
2022/02/08 10:38:51;;;;;;;2.38;1.77;;;;;;;;;;6158036;23;20462;-88
2022/02/08 10:41:18;;;;;;;2.80;1.98;;;;;;;;;;6158388;23;20012;-87
2022/02/08 10:44:05;;;;;;;2.70;2.50;;;;;;;;;;6158175;23;20005;-88
2022/02/08 10:46:31;;;;;;;4.80;2.22;;;;;;;;;;6158016;23;20416;-86
2022/02/08 10:49:05;;;;;;;4.47;4.07;;;;;;;;;;6158535;23;20010;-87
2022/02/08 10:51:38;;;;;;;4.38;3.97;;;;;;;;;;6156472;23;20403;-87
2022/02/08 10:54:09;;;;;;;2.42;2.22;;;;;;;;;;6157818;23;20051;-87
2022/02/08 10:56:37;;;;;;;2.45;1.88;;;;;;;;;;6157691;23;20006;-86
2022/02/08 11:02:16;;;;;;;5.05;1.80;;;;;;;;;;6143185;23;20021;-87
2022/02/08 11:05:12;;;;;;;1.90;1.55;;;;;;;;;;6156129;23;20006;-87
2022/02/08 11:13:14;;;;;;;2.83;1.90;;;;;;;;;;6168068;23;20009;-85
2022/02/08 11:20:35;;;;;;;2.38;1.80;;;;;;;;;;6167981;23;20019;-88
2022/02/08 11:23:25;;;;;;;1.70;1.25;;;;;;;;;;6157469;23;20002;-89
2022/02/08 11:25:53;;;;;;;1.75;1.00;;;;;;;;;;6157475;23;20080;-88
2022/02/08 11:28:34;;;;;;;2.15;1.60;;;;;;;;;;6155833;23;20009;-89
2022/02/08 11:31:39;;;;;;;2.58;1.20;;;;;;;;;;6156007;23;20344;-90
2022/02/08 12:07:44;;;;;;;1.42;1.30;;;;;;;;;;6164313;23;20080;-94
2022/02/08 12:10:18;;;;;;;1.48;1.10;;;;;;;;;;6159557;23;20013;-94
2022/02/08 12:13:15;;;;;;;1.75;1.10;;;;;;;;;;6157031;23;20009;-96
2022/02/08 12:28:22;;;;;;;1.60;1.35;;;;;;;;;;6158217;23;20072;-96
2022/02/08 12:35:37;;;;;;;4.60;1.80;;;;;;;;;;6167368;23;20013;-88
2022/02/08 17:46:54;;;;;;;2.92;1.38;;;;;;;;;;6186463;23;20032;-91
2022/02/08 17:49:20;;;;;;;2.95;1.40;;;;;;;;;;6186309;23;20032;-88
2022/02/08 17:51:47;;;;;;;1.80;1.40;;;;;;;;;;6186569;23;20009;-88
2022/02/08 17:54:13;;;;;;;2.42;1.42;;;;;;;;;;6184728;23;20013;-88
2022/02/08 17:56:39;;;;;;;1.73;1.38;;;;;;;;;;6184844;23;19997;-88
2022/02/08 17:59:04;;;;;;;4.32;2.40;;;;;;;;;;6186295;23;20033;-88
2022/02/08 18:01:29;;;;;;;4.28;3.10;;;;;;;;;;6186352;23;20329;-88
2022/02/08 18:03:55;;;;;;;3.25;2.00;;;;;;;;;;6184548;23;20340;-88
2022/02/08 18:06:20;;;;;;;4.45;2.20;;;;;;;;;;6186469;23;20352;-88
2022/02/08 18:08:46;;;;;;;4.88;2.20;;;;;;;;;;6186364;23;20076;-87
2022/02/08 18:11:11;;;;;;;3.65;2.38;;;;;;;;;;6186257;23;20015;-87
2022/02/08 18:13:41;;;;;;;4.18;2.05;;;;;;;;;;6186114;23;20375;-88
2022/02/08 18:16:07;;;;;;;3.08;2.15;;;;;;;;;;6186652;23;20007;-88
2022/02/08 18:18:39;;;;;;;7.50;3.70;;;;;;;;;;6186353;23;20334;-87
2022/02/08 18:21:20;;;;;;;6.05;2.92;;;;;;;;;;6186244;23;20005;-88
2022/02/08 18:24:50;;;;;;;8.48;2.88;;;;;;;;;;6184575;23;20389;-88
2022/02/08 19:06:17;;;;;;;2.42;2.20;;;;;;;;;;6187887;23;20063;-86
2022/02/08 19:07:48;;;;;;;5.50;1.90;;;;;;;;;;6187267;23;20332;-88
2022/02/08 19:15:41;;;;;;;8.38;4.25;;;;;;;;;;6198131;23;20000;-88
2022/02/08 19:20:53;;;;;;;7.43;3.40;;;;;;;;;;6198192;23;20008;-90
2022/02/08 19:23:18;;;;;;;5.70;3.65;;;;;;;;;;6187712;23;20020;-87
2022/02/08 19:25:44;;;;;;;3.75;2.55;;;;;;;;;;6187624;23;20005;-90
2022/02/08 19:28:10;;;;;;;11.15;3.45;;;;;;;;;;6187836;23;20305;-87
2022/02/08 19:30:35;;;;;;;5.97;2.85;;;;;;;;;;6185818;23;20012;-88
2022/02/08 19:33:01;;;;;;;3.47;2.40;;;;;;;;;;6187550;23;20009;-87
2022/02/08 19:35:26;;;;;;;4.32;2.20;;;;;;;;;;6185937;23;20359;-87
2022/02/08 19:37:52;;;;;;;5.68;2.97;;;;;;;;;;6185700;23;20013;-87
2022/02/08 19:40:17;;;;;;;8.27;5.80;;;;;;;;;;6186031;23;20441;-87
2022/02/08 19:42:43;;;;;;;10.30;6.05;;;;;;;;;;6187333;23;20005;-88
2022/02/08 19:45:25;;;;;;;11.10;5.90;;;;;;;;;;6186009;23;20039;-90
2022/02/08 19:47:51;;;;;;;8.65;6.13;;;;;;;;;;6186015;23;20016;-90
2022/02/08 19:50:17;;;;;;;11.48;7.22;;;;;;;;;;6185908;23;20036;-91
2022/02/08 19:52:44;;;;;;;11.00;5.70;;;;;;;;;;6187720;23;20005;-87
2022/02/08 19:57:56;;;;;;;16.88;8.25;;;;;;;;;;6187346;23;20032;-88
2022/02/08 20:00:28;;;;;;;18.33;10.32;;;;;;;;;;6186042;23;19997;-89
2022/02/08 20:02:57;;;;;;;15.45;8.90;;;;;;;;;;6186099;23;20005;-90
2022/02/08 20:05:28;;;;;;;15.73;8.65;;;;;;;;;;6186039;23;20020;-90
2022/02/08 20:07:53;;;;;;;106.82;48.22;;;;;;;;;;6186087;23;20012;-87
2022/02/08 20:10:20;;;;;;;47.00;27.98;;;;;;;;;;6187347;23;20001;-91
2022/02/08 20:12:45;;;;;;;21.65;15.27;;;;;;;;;;6187375;23;20072;-89
2022/02/08 20:15:11;;;;;;;20.33;10.98;;;;;;;;;;6187464;23;20004;-90
2022/02/08 20:17:37;;;;;;;19.30;11.90;;;;;;;;;;6185899;23;20005;-90
2022/02/08 20:20:09;;;;;;;23.02;13.73;;;;;;;;;;6187458;23;20005;-87
2022/02/08 20:22:35;;;;;;;18.13;12.63;;;;;;;;;;6185604;23;20429;-87
2022/02/08 20:25:04;;;;;;;17.33;8.65;;;;;;;;;;6185777;23;20035;-87
2022/02/08 20:27:48;;;;;;;13.52;8.30;;;;;;;;;;6187474;23;20080;-89
2022/02/08 20:30:16;;;;;;;17.73;8.65;;;;;;;;;;6187211;23;20005;-88
2022/02/08 20:32:42;;;;;;;11.63;7.38;;;;;;;;;;6187217;23;20016;-88
2022/02/08 20:35:08;;;;;;;11.95;7.18;;;;;;;;;;6187462;23;20063;-87
2022/02/08 20:37:38;;;;;;;14.77;10.02;;;;;;;;;;6185461;23;20013;-89
2022/02/08 20:40:04;;;;;;;13.02;8.07;;;;;;;;;;6185866;23;20088;-85
2022/02/08 20:42:30;;;;;;;16.60;9.27;;;;;;;;;;6187021;23;19997;-88
2022/02/08 20:44:55;;;;;;;10.25;5.60;;;;;;;;;;6187074;23;20314;-88
2022/02/08 20:47:26;;;;;;;10.73;7.50;;;;;;;;;;6187231;23;20328;-88
2022/02/08 20:49:58;;;;;;;9.80;6.35;;;;;;;;;;6186881;23;20060;-93
2022/02/08 20:52:28;;;;;;;11.18;6.05;;;;;;;;;;6187632;23;20032;-88
2022/02/08 20:55:05;;;;;;;12.98;7.05;;;;;;;;;;6185823;23;20427;-88
2022/02/08 20:57:37;;;;;;;10.98;6.63;;;;;;;;;;6185619;23;20091;-87
2022/02/08 21:00:08;;;;;;;14.93;8.00;;;;;;;;;;6186926;23;20014;-86
2022/02/08 21:02:40;;;;;;;11.40;7.55;;;;;;;;;;6186951;23;20060;-89
2022/02/08 21:07:32;;;;;;;12.00;7.00;;;;;;;;;;6187145;23;20005;-88
2022/02/08 21:09:57;;;;;;;11.68;6.60;;;;;;;;;;6185490;23;20092;-88
2022/02/08 21:12:40;;;;;;;12.40;7.10;;;;;;;;;;6185436;23;20001;-86
2022/02/08 21:15:08;;;;;;;9.63;6.57;;;;;;;;;;6186585;23;20015;-87
2022/02/08 21:17:34;;;;;;;10.50;6.63;;;;;;;;;;6185372;23;20458;-89
2022/02/08 21:19:59;;;;;;;10.30;7.47;;;;;;;;;;6186859;23;20033;-90
2022/02/08 21:22:25;;;;;;;11.55;7.57;;;;;;;;;;6184827;23;20005;-87
2022/02/08 21:24:52;;;;;;;8.40;6.30;;;;;;;;;;6185432;23;20047;-88
2022/02/08 21:27:20;;;;;;;10.18;6.45;;;;;;;;;;6185090;23;20012;-91
2022/02/08 21:53:25;;;;;;;11.98;6.97;;;;;;;;;;6193404;23;20013;-88
2022/02/08 21:55:54;;;;;;;10.40;7.32;;;;;;;;;;6186161;23;20076;-88
2022/02/08 21:58:21;;;;;;;11.80;7.28;;;;;;;;;;6184327;23;20443;-87
2022/02/08 22:00:49;;;;;;;11.88;7.57;;;;;;;;;;6184645;23;20012;-87
2022/02/08 22:03:15;;;;;;;13.02;7.85;;;;;;;;;;6186250;23;20001;-87
2022/02/08 22:05:41;;;;;;;13.77;8.10;;;;;;;;;;6184650;23;20096;-87
2022/02/08 22:08:13;;;;;;;13.73;7.78;;;;;;;;;;6185864;23;20417;-88
2022/02/08 22:18:50;;;;;;;11.43;7.55;;;;;;;;;;6186087;23;20433;-87
2022/02/08 22:21:23;;;;;;;9.77;6.57;;;;;;;;;;6186151;23;20012;-87
2022/02/08 22:31:52;;;;;;;10.77;6.32;;;;;;;;;;6186050;23;20431;-88
2022/02/08 22:34:30;;;;;;;8.20;6.00;;;;;;;;;;6185591;23;20009;-87
2022/02/08 22:37:08;;;;;;;9.05;6.35;;;;;;;;;;6184467;23;20029;-87
2022/02/08 22:39:47;;;;;;;7.80;5.57;;;;;;;;;;6186204;23;20001;-88
2022/02/08 22:42:22;;;;;;;8.50;5.85;;;;;;;;;;6185787;23;20005;-89
2022/02/08 22:44:52;;;;;;;8.05;5.65;;;;;;;;;;6186013;23;20021;-89
2022/02/08 22:47:17;;;;;;;5.25;4.00;;;;;;;;;;6186423;23;20429;-88
2022/02/08 22:49:43;;;;;;;7.53;5.30;;;;;;;;;;6184556;23;20011;-88
2022/02/08 22:52:08;;;;;;;6.95;4.50;;;;;;;;;;6186156;23;20076;-88
2022/02/08 22:54:35;;;;;;;7.57;4.57;;;;;;;;;;6184599;23;20004;-88
